Time;durP1;ratioP1;P1;durP2;ratioP2;P2;SDS_P1;SDS_P2;PMS_P1;PMS_P2;Temp;Humidity;BMP_temperature;BMP_pressure;BME280_temperature;BME280_humidity;BME280_pressure;Samples;Min_cycle;Max_cycle;Signal;HPM_P1;HPM_P2
2023/06/08 00:01:32;;;;;;;11.25;10.02;;;11.00;99.90;;;;;;6276393;22;20044;-61
2023/06/08 00:03:57;;;;;;;14.20;10.40;;;11.00;99.90;;;;;;6276387;22;20000;-61
2023/06/08 00:06:25;;;;;;;13.73;9.95;;;11.00;99.90;;;;;;6276212;22;20003;-61
2023/06/08 00:08:51;;;;;;;17.15;10.82;;;11.00;99.90;;;;;;6276678;22;20034;-61
2023/06/08 00:11:17;;;;;;;12.45;9.93;;;11.10;99.90;;;;;;6276853;22;20000;-61
2023/06/08 00:13:42;;;;;;;14.88;9.80;;;11.10;99.90;;;;;;6276365;22;19999;-62
2023/06/08 00:16:08;;;;;;;13.15;9.68;;;11.10;99.90;;;;;;6276415;22;20318;-61
2023/06/08 00:18:36;;;;;;;15.60;10.38;;;11.10;99.90;;;;;;6276316;22;19992;-61
2023/06/08 00:21:02;;;;;;;13.38;10.05;;;11.00;99.90;;;;;;6276133;22;20106;-61
2023/06/08 00:23:28;;;;;;;14.95;10.25;;;11.00;99.90;;;;;;6276203;22;19999;-61
2023/06/08 00:25:54;;;;;;;15.13;10.35;;;11.00;99.90;;;;;;6275631;22;20330;-61
2023/06/08 00:28:20;;;;;;;16.95;10.35;;;11.00;99.90;;;;;;6276026;22;20342;-61
2023/06/08 00:30:46;;;;;;;19.35;11.45;;;10.90;99.90;;;;;;6275568;22;20434;-61
2023/06/08 00:33:12;;;;;;;14.52;10.45;;;10.90;99.90;;;;;;6276132;22;20026;-61
2023/06/08 00:35:37;;;;;;;15.02;9.52;;;10.90;99.90;;;;;;6275735;22;20441;-61
2023/06/08 00:38:03;;;;;;;14.23;10.35;;;10.90;99.90;;;;;;6275754;22;20293;-61
2023/06/08 00:40:29;;;;;;;16.17;10.30;;;10.90;99.90;;;;;;6275465;22;20357;-61
2023/06/08 00:42:54;;;;;;;14.18;11.20;;;10.90;99.90;;;;;;6276029;22;20349;-61
2023/06/08 00:45:20;;;;;;;19.25;13.13;;;10.90;99.90;;;;;;6275599;22;20007;-61
2023/06/08 00:47:47;;;;;;;18.40;12.93;;;10.80;99.90;;;;;;6275851;22;20045;-61
2023/06/08 00:50:16;;;;;;;22.42;14.07;;;10.80;99.90;;;;;;6275846;22;20026;-61
2023/06/08 00:52:44;;;;;;;21.10;14.02;;;10.80;99.90;;;;;;6275847;22;20027;-61
2023/06/08 00:55:10;;;;;;;21.23;14.27;;;10.80;99.90;;;;;;6275210;22;20061;-61
2023/06/08 00:57:37;;;;;;;19.05;13.80;;;10.80;99.90;;;;;;6275529;22;20002;-61
2023/06/08 01:00:11;;;;;;;24.17;15.38;;;10.70;99.90;;;;;;6248815;22;20038;-61
2023/06/08 01:02:37;;;;;;;19.75;14.73;;;10.70;99.90;;;;;;6275731;22;20078;-61
2023/06/08 01:05:03;;;;;;;18.48;14.43;;;10.70;99.90;;;;;;6275676;22;20342;-61
2023/06/08 01:07:40;;;;;;;20.40;15.13;;;10.70;99.90;;;;;;6274409;22;20042;-61
2023/06/08 01:10:15;;;;;;;20.58;13.68;;;10.70;99.90;;;;;;6274126;22;19988;-61
2023/06/08 01:12:55;;;;;;;17.75;12.63;;;10.70;99.90;;;;;;6273723;22;20141;-61
2023/06/08 01:15:29;;;;;;;21.10;13.60;;;10.70;99.90;;;;;;6274275;22;19999;-61
2023/06/08 01:18:04;;;;;;;21.15;13.98;;;10.60;99.90;;;;;;6248062;22;19998;-62
2023/06/08 01:21:07;;;;;;;18.02;13.00;;;10.60;99.90;;;;;;6274329;22;19992;-62
2023/06/08 01:23:54;;;;;;;14.73;10.95;;;10.60;99.90;;;;;;6274278;22;19999;-62
2023/06/08 01:26:20;;;;;;;17.75;12.60;;;10.50;99.90;;;;;;6274354;22;20007;-62
2023/06/08 01:28:50;;;;;;;18.55;13.30;;;10.50;99.90;;;;;;6274282;22;20310;-62
2023/06/08 01:31:16;;;;;;;17.77;12.48;;;10.50;99.90;;;;;;6274118;22;20007;-62
2023/06/08 01:33:43;;;;;;;17.55;12.60;;;10.40;99.90;;;;;;6274030;22;20050;-62
2023/06/08 01:36:17;;;;;;;17.83;12.43;;;10.40;99.90;;;;;;6274659;22;20006;-62
2023/06/08 01:38:45;;;;;;;21.65;12.75;;;10.40;99.90;;;;;;6274009;22;20000;-62
2023/06/08 01:41:20;;;;;;;15.32;11.20;;;10.50;99.90;;;;;;6273781;22;20000;-62
2023/06/08 01:43:49;;;;;;;18.88;13.40;;;10.50;99.90;;;;;;6274172;22;20454;-62
2023/06/08 01:46:18;;;;;;;18.25;12.40;;;10.40;99.90;;;;;;6273865;22;20000;-62
2023/06/08 01:48:46;;;;;;;19.13;13.52;;;10.40;99.90;;;;;;6274091;22;20451;-63
2023/06/08 01:51:14;;;;;;;17.85;13.10;;;10.40;99.90;;;;;;6273797;22;19992;-63
2023/06/08 01:53:40;;;;;;;13.65;10.95;;;10.40;99.90;;;;;;6273767;22;20003;-60
2023/06/08 01:56:06;;;;;;;17.52;11.90;;;10.40;99.90;;;;;;6273976;22;20000;-62
2023/06/08 01:58:31;;;;;;;17.73;12.60;;;10.40;99.90;;;;;;6274036;22;20007;-61
2023/06/08 02:00:57;;;;;;;17.05;12.82;;;10.40;99.90;;;;;;6273966;22;20310;-61
2023/06/08 02:03:23;;;;;;;18.42;12.70;;;10.30;99.90;;;;;;6273634;22;20423;-62
2023/06/08 02:05:48;;;;;;;18.25;13.48;;;10.30;99.90;;;;;;6222747;22;1173301;-62
2023/06/08 02:08:14;;;;;;;19.38;13.80;;;10.20;99.90;;;;;;6275106;22;20456;-62
2023/06/08 02:10:40;;;;;;;18.73;13.43;;;10.20;99.90;;;;;;6275298;22;20027;-60
2023/06/08 02:13:05;;;;;;;22.50;14.73;;;10.20;99.90;;;;;;6275565;22;19999;-62
2023/06/08 02:15:31;;;;;;;18.35;13.70;;;10.20;99.90;;;;;;6275175;22;20263;-61
2023/06/08 02:17:59;;;;;;;19.77;13.40;;;10.20;99.90;;;;;;6275786;22;20067;-62
2023/06/08 02:20:25;;;;;;;23.00;14.05;;;10.30;99.90;;;;;;6275111;22;20019;-61
2023/06/08 02:22:51;;;;;;;20.95;13.77;;;10.40;99.90;;;;;;6275634;22;20015;-61
2023/06/08 02:25:17;;;;;;;18.88;14.05;;;10.50;99.90;;;;;;6274613;22;20335;-61
2023/06/08 02:27:43;;;;;;;20.45;14.02;;;10.50;99.90;;;;;;6275136;22;20042;-60
2023/06/08 02:30:11;;;;;;;24.02;14.85;;;10.60;99.90;;;;;;6275113;22;19991;-60
2023/06/08 02:32:41;;;;;;;20.02;14.50;;;10.60;99.90;;;;;;6275036;22;20004;-61
2023/06/08 02:35:08;;;;;;;23.17;15.57;;;10.50;99.90;;;;;;6275348;22;19996;-62
2023/06/08 02:37:33;;;;;;;20.70;13.00;;;10.50;99.90;;;;;;6275746;22;20038;-63
2023/06/08 02:40:00;;;;;;;16.98;13.98;;;10.50;99.90;;;;;;6275299;22;20000;-62
2023/06/08 02:42:26;;;;;;;20.52;13.98;;;10.50;99.90;;;;;;6275130;22;19996;-63
2023/06/08 02:44:52;;;;;;;20.65;12.43;;;10.40;99.90;;;;;;6274855;22;20011;-63
2023/06/08 02:47:17;;;;;;;17.33;12.50;;;10.40;99.90;;;;;;6274350;22;20000;-63
2023/06/08 02:49:43;;;;;;;14.95;11.00;;;10.30;99.90;;;;;;6274305;22;20079;-62
2023/06/08 02:52:09;;;;;;;11.82;9.13;;;10.30;99.90;;;;;;6274234;22;20301;-63
2023/06/08 02:54:36;;;;;;;14.00;10.30;;;10.30;99.90;;;;;;6274089;22;20094;-60
2023/06/08 02:57:02;;;;;;;12.88;9.57;;;10.30;99.90;;;;;;6274506;22;19996;-62
2023/06/08 02:59:29;;;;;;;14.50;8.73;;;10.30;99.90;;;;;;6274287;22;20000;-62
2023/06/08 03:01:56;;;;;;;14.68;8.30;;;10.30;99.90;;;;;;6274276;22;20117;-62
2023/06/08 03:04:23;;;;;;;9.73;7.45;;;10.20;99.90;;;;;;6274204;22;20000;-62
2023/06/08 03:06:53;;;;;;;10.38;8.00;;;10.20;99.90;;;;;;6273996;22;20135;-63
2023/06/08 03:09:29;;;;;;;13.80;8.20;;;10.20;99.90;;;;;;6274411;22;20088;-63
2023/06/08 03:11:56;;;;;;;12.95;7.22;;;10.20;99.90;;;;;;6274215;22;19991;-62
2023/06/08 03:14:28;;;;;;;10.75;7.78;;;10.20;99.90;;;;;;6274418;22;20028;-62
2023/06/08 03:17:03;;;;;;;14.30;8.98;;;10.20;99.90;;;;;;6274219;22;19992;-62
2023/06/08 03:19:32;;;;;;;15.95;9.80;;;10.20;99.90;;;;;;6274270;22;20003;-62
2023/06/08 03:22:04;;;;;;;14.15;9.57;;;10.10;99.90;;;;;;6274297;22;20015;-63
2023/06/08 03:24:31;;;;;;;16.10;10.30;;;10.10;99.90;;;;;;6274717;22;20087;-62
2023/06/08 03:27:00;;;;;;;22.38;12.40;;;10.10;99.90;;;;;;6274382;22;19995;-61
2023/06/08 03:29:26;;;;;;;18.30;12.55;;;10.10;99.90;;;;;;6274418;22;19995;-64
2023/06/08 03:31:52;;;;;;;22.13;14.07;;;10.10;99.90;;;;;;6276011;22;20000;-62
2023/06/08 03:34:18;;;;;;;23.27;14.45;;;10.10;99.90;;;;;;6276398;22;20306;-62
2023/06/08 03:36:45;;;;;;;22.67;14.40;;;10.00;99.90;;;;;;6275807;22;20000;-62
2023/06/08 03:39:11;;;;;;;25.92;15.48;;;10.00;99.90;;;;;;6276238;22;20097;-62
2023/06/08 03:41:37;;;;;;;24.58;17.20;;;10.00;99.90;;;;;;6276545;22;20428;-62
2023/06/08 03:44:03;;;;;;;22.00;15.70;;;10.00;99.90;;;;;;6276463;22;20087;-62
2023/06/08 03:46:28;;;;;;;24.38;15.40;;;9.90;99.90;;;;;;6276387;22;20310;-62
2023/06/08 03:48:54;;;;;;;23.10;14.60;;;9.90;99.90;;;;;;6276346;22;20401;-62
2023/06/08 03:51:21;;;;;;;19.90;14.13;;;9.80;99.90;;;;;;6276546;22;20333;-62
2023/06/08 03:53:51;;;;;;;21.33;14.93;;;9.80;99.90;;;;;;6276152;22;19991;-62
2023/06/08 03:56:17;;;;;;;21.17;14.95;;;9.80;99.90;;;;;;6276281;22;19996;-62
2023/06/08 03:58:44;;;;;;;25.83;15.52;;;9.80;99.90;;;;;;6275839;22;19999;-62
2023/06/08 04:01:13;;;;;;;22.92;15.68;;;9.80;99.90;;;;;;6276270;22;19995;-62
2023/06/08 04:03:39;;;;;;;23.23;14.52;;;9.70;99.90;;;;;;6275804;22;19999;-62
2023/06/08 04:06:08;;;;;;;23.80;15.63;;;9.80;99.90;;;;;;6275410;22;20034;-62
2023/06/08 04:08:44;;;;;;;22.30;15.73;;;9.80;99.90;;;;;;6275055;22;19996;-62
2023/06/08 04:11:11;;;;;;;22.20;14.88;;;9.80;99.90;;;;;;6275589;22;20078;-62
2023/06/08 04:13:38;;;;;;;24.80;16.15;;;9.90;99.90;;;;;;6275003;22;19996;-62
2023/06/08 04:16:08;;;;;;;25.75;16.67;;;9.90;99.90;;;;;;6248678;22;20011;-62
2023/06/08 04:18:39;;;;;;;28.85;17.60;;;9.90;99.90;;;;;;6275136;22;20078;-62
2023/06/08 04:21:06;;;;;;;31.02;17.58;;;9.90;99.90;;;;;;6276266;22;20000;-62
2023/06/08 04:23:36;;;;;;;26.73;16.50;;;9.80;99.90;;;;;;6275162;22;20006;-62
2023/06/08 04:26:03;;;;;;;25.10;17.48;;;9.80;99.90;;;;;;6275569;22;20000;-62
2023/06/08 04:28:29;;;;;;;28.45;18.33;;;9.80;99.90;;;;;;6275923;22;19996;-62
2023/06/08 04:30:55;;;;;;;27.17;16.75;;;9.80;99.90;;;;;;6275158;22;20004;-62
2023/06/08 04:33:21;;;;;;;23.35;15.70;;;9.80;99.90;;;;;;6276023;22;20073;-62
2023/06/08 04:35:47;;;;;;;27.42;16.98;;;9.90;99.90;;;;;;6275121;22;20010;-62
2023/06/08 04:38:16;;;;;;;25.30;16.88;;;9.90;99.90;;;;;;6274741;22;20000;-62
2023/06/08 04:40:47;;;;;;;25.67;14.75;;;9.90;99.90;;;;;;6275847;22;19995;-62
2023/06/08 04:43:17;;;;;;;23.08;16.38;;;9.90;99.90;;;;;;6275066;22;20045;-62
2023/06/08 04:45:44;;;;;;;24.73;14.80;;;9.90;99.90;;;;;;6274813;22;20419;-62
2023/06/08 04:48:10;;;;;;;26.55;16.40;;;9.90;99.90;;;;;;6275642;22;20410;-61
2023/06/08 04:50:45;;;;;;;22.17;12.57;;;9.90;99.90;;;;;;6274749;22;20483;-61
2023/06/08 04:53:12;;;;;;;20.55;11.82;;;9.90;99.90;;;;;;6275160;22;20279;-61
2023/06/08 04:55:37;;;;;;;19.00;12.75;;;9.90;99.90;;;;;;6274650;22;20053;-63
2023/06/08 04:58:03;;;;;;;21.17;13.07;;;9.90;99.90;;;;;;6275341;22;20004;-61
2023/06/08 05:00:28;;;;;;;18.73;12.32;;;9.90;99.90;;;;;;6274764;22;19996;-61
2023/06/08 05:02:54;;;;;;;19.75;11.60;;;9.90;99.90;;;;;;6275677;22;20278;-61
2023/06/08 05:05:20;;;;;;;18.27;12.75;;;9.90;99.90;;;;;;6274592;22;20060;-62
2023/06/08 05:07:46;;;;;;;14.98;11.02;;;9.90;99.90;;;;;;6273896;22;20267;-62
2023/06/08 05:10:12;;;;;;;16.15;11.35;;;9.90;99.90;;;;;;6274915;22;20262;-62
2023/06/08 05:12:37;;;;;;;21.83;11.55;;;10.00;99.90;;;;;;6275277;22;20006;-61
2023/06/08 05:15:04;;;;;;;16.52;11.48;;;10.00;99.90;;;;;;6274989;22;20282;-61
2023/06/08 05:17:29;;;;;;;18.02;11.40;;;9.90;99.90;;;;;;6275081;22;20027;-61
2023/06/08 05:19:55;;;;;;;18.90;12.10;;;9.90;99.90;;;;;;6274701;22;20283;-61
2023/06/08 05:22:21;;;;;;;18.42;12.13;;;10.00;99.90;;;;;;6275295;22;19995;-62
2023/06/08 05:24:46;;;;;;;17.92;11.55;;;10.00;99.90;;;;;;6273971;22;20074;-61
2023/06/08 05:27:12;;;;;;;20.20;12.45;;;10.00;99.90;;;;;;6274524;22;19996;-61
2023/06/08 05:29:38;;;;;;;19.92;12.77;;;10.00;99.90;;;;;;6275047;22;20000;-61
2023/06/08 05:32:06;;;;;;;19.42;12.98;;;10.00;99.90;;;;;;6274785;22;20354;-60
2023/06/08 05:34:31;;;;;;;20.25;12.65;;;10.00;99.90;;;;;;6274623;22;20601;-63
2023/06/08 05:36:57;;;;;;;24.30;13.85;;;10.10;99.90;;;;;;6272924;22;20007;-62
2023/06/08 05:39:22;;;;;;;19.10;13.38;;;10.10;99.90;;;;;;6274395;22;20000;-62
2023/06/08 05:41:48;;;;;;;20.80;13.85;;;10.20;99.90;;;;;;6274772;22;20082;-62
2023/06/08 05:44:14;;;;;;;28.33;15.35;;;10.20;99.90;;;;;;6274594;22;20356;-62
2023/06/08 05:46:40;;;;;;;21.55;14.30;;;10.20;99.90;;;;;;6274773;22;19999;-62
2023/06/08 05:49:05;;;;;;;20.90;14.27;;;10.20;99.90;;;;;;6275295;22;20100;-62
2023/06/08 05:51:31;;;;;;;26.85;14.60;;;10.20;99.90;;;;;;6275015;22;20018;-62
2023/06/08 05:53:57;;;;;;;24.45;14.73;;;10.20;99.90;;;;;;6274094;22;20011;-62
2023/06/08 05:56:22;;;;;;;20.98;14.48;;;10.10;99.90;;;;;;6274577;22;19991;-62
2023/06/08 05:58:48;;;;;;;27.83;14.65;;;10.10;99.90;;;;;;6274335;22;20072;-62
2023/06/08 06:01:14;;;;;;;20.52;14.02;;;10.10;99.90;;;;;;6273642;22;20356;-62
2023/06/08 06:03:40;;;;;;;22.70;15.73;;;10.10;99.90;;;;;;6275027;22;19995;-62
2023/06/08 06:06:06;;;;;;;28.52;15.73;;;10.10;99.90;;;;;;6274271;22;20047;-62
2023/06/08 06:08:32;;;;;;;22.55;15.85;;;10.10;99.90;;;;;;6274469;22;20110;-62
2023/06/08 06:10:57;;;;;;;23.75;15.77;;;10.10;99.90;;;;;;6274892;22;20441;-62
2023/06/08 06:13:23;;;;;;;24.90;16.88;;;10.00;99.90;;;;;;6275186;22;20027;-62
2023/06/08 06:15:49;;;;;;;23.55;15.30;;;10.00;99.90;;;;;;6275044;22;20006;-62
2023/06/08 06:18:14;;;;;;;23.88;15.20;;;10.00;99.90;;;;;;6275268;22;20373;-62
2023/06/08 06:20:40;;;;;;;22.50;15.07;;;10.10;99.90;;;;;;6273938;22;20023;-62
2023/06/08 06:23:06;;;;;;;24.30;15.02;;;10.20;99.90;;;;;;6274639;22;20421;-62
2023/06/08 06:25:33;;;;;;;21.17;15.48;;;10.20;99.90;;;;;;6274772;22;20007;-62
2023/06/08 06:27:59;;;;;;;28.13;14.85;;;10.20;99.90;;;;;;6274770;22;20026;-62
2023/06/08 06:30:26;;;;;;;17.23;14.38;;;10.30;99.90;;;;;;6274449;22;19992;-62
2023/06/08 06:32:51;;;;;;;23.50;14.40;;;10.30;99.90;;;;;;6274945;22;19999;-62
2023/06/08 06:35:17;;;;;;;21.30;14.77;;;10.30;99.90;;;;;;6274954;22;20006;-62
2023/06/08 06:37:43;;;;;;;25.50;15.15;;;10.40;99.90;;;;;;6247981;22;20003;-63
2023/06/08 06:40:09;;;;;;;21.15;15.30;;;10.40;99.90;;;;;;6275088;22;20027;-63
2023/06/08 06:42:37;;;;;;;24.30;16.40;;;10.40;99.90;;;;;;6273019;22;19999;-62
2023/06/08 06:45:03;;;;;;;21.17;15.25;;;10.40;99.90;;;;;;6273406;22;20302;-62
2023/06/08 06:47:29;;;;;;;22.30;14.93;;;10.50;99.90;;;;;;6273889;22;19996;-62
2023/06/08 06:49:54;;;;;;;21.58;15.38;;;10.50;99.90;;;;;;6273575;22;19999;-63
2023/06/08 06:52:21;;;;;;;23.38;15.25;;;10.50;99.90;;;;;;6274865;22;20202;-62
2023/06/08 06:54:46;;;;;;;22.63;14.80;;;10.50;99.90;;;;;;6274373;22;20078;-63
2023/06/08 06:57:12;;;;;;;19.98;14.75;;;10.60;99.90;;;;;;6274916;22;20452;-62
2023/06/08 06:59:38;;;;;;;22.67;14.20;;;10.60;99.90;;;;;;6273820;22;20273;-62
2023/06/08 07:02:06;;;;;;;23.27;15.23;;;10.60;99.90;;;;;;6273908;22;20279;-62
2023/06/08 07:04:32;;;;;;;18.90;14.13;;;10.70;99.90;;;;;;6274709;22;20052;-62
2023/06/08 07:06:57;;;;;;;22.67;15.57;;;10.70;99.90;;;;;;6276223;22;20083;-62
2023/06/08 07:09:24;;;;;;;19.98;13.85;;;10.80;99.90;;;;;;6274909;22;19996;-62
2023/06/08 07:11:50;;;;;;;20.73;15.00;;;10.90;99.90;;;;;;6276230;22;20104;-63
2023/06/08 07:14:16;;;;;;;20.63;13.95;;;10.90;99.90;;;;;;6276371;22;20012;-62
2023/06/08 07:16:42;;;;;;;24.40;14.20;;;10.90;99.90;;;;;;6276222;22;19996;-62
2023/06/08 07:19:08;;;;;;;23.80;14.85;;;11.00;99.90;;;;;;6276330;22;19988;-62
2023/06/08 07:21:38;;;;;;;20.20;14.32;;;11.00;99.90;;;;;;6276750;22;19996;-62
2023/06/08 07:24:04;;;;;;;19.23;14.10;;;11.10;99.90;;;;;;6276575;22;19992;-63
2023/06/08 07:26:30;;;;;;;20.23;14.10;;;11.10;99.90;;;;;;6276448;22;19995;-62
2023/06/08 07:28:57;;;;;;;17.45;12.55;;;11.20;99.90;;;;;;6276273;22;19996;-62
2023/06/08 07:31:23;;;;;;;18.13;12.60;;;11.20;99.90;;;;;;6277030;22;20000;-62
2023/06/08 07:33:50;;;;;;;20.08;11.23;;;11.20;99.90;;;;;;6275936;22;20110;-62
2023/06/08 07:36:16;;;;;;;18.48;11.07;;;11.20;99.90;;;;;;6248474;22;20079;-62
2023/06/08 07:38:41;;;;;;;13.48;10.82;;;11.20;99.90;;;;;;6275749;22;20308;-62
2023/06/08 07:41:07;;;;;;;18.40;12.57;;;11.20;99.90;;;;;;6275386;22;20322;-63
2023/06/08 07:43:33;;;;;;;24.63;14.38;;;11.20;99.90;;;;;;6275348;22;20475;-62
2023/06/08 07:45:59;;;;;;;23.48;12.18;;;11.30;99.90;;;;;;6276203;22;20050;-62
2023/06/08 07:48:25;;;;;;;18.08;12.77;;;11.30;99.90;;;;;;6270607;22;20445;-63
2023/06/08 07:50:51;;;;;;;18.58;12.05;;;11.20;99.90;;;;;;6248685;22;20008;-63
2023/06/08 07:53:18;;;;;;;17.33;12.43;;;11.20;99.90;;;;;;6275309;22;19995;-63
2023/06/08 07:55:44;;;;;;;23.02;13.10;;;11.30;99.90;;;;;;6248384;22;20183;-62
2023/06/08 07:58:10;;;;;;;18.98;12.73;;;11.30;99.90;;;;;;6276137;22;20301;-62
2023/06/08 08:00:35;;;;;;;19.55;12.32;;;11.50;99.90;;;;;;6275800;22;20014;-62
2023/06/08 08:03:03;;;;;;;19.95;12.25;;;11.50;99.90;;;;;;6276306;22;19999;-62
2023/06/08 08:05:30;;;;;;;20.63;13.75;;;11.50;99.90;;;;;;6274479;22;20325;-63
2023/06/08 08:07:56;;;;;;;21.80;13.52;;;11.60;99.90;;;;;;6244857;23;20000;-63
2023/06/08 08:10:22;;;;;;;22.75;15.05;;;11.60;99.90;;;;;;6244586;23;19992;-61
2023/06/08 08:12:47;;;;;;;21.88;15.07;;;11.60;99.90;;;;;;6244437;23;20091;-62
2023/06/08 08:15:13;;;;;;;22.35;14.73;;;11.70;99.90;;;;;;6244659;23;20024;-63
2023/06/08 08:17:40;;;;;;;16.52;12.88;;;11.70;99.90;;;;;;6217739;23;20292;-62
2023/06/08 08:20:07;;;;;;;22.38;13.82;;;11.70;99.90;;;;;;6244888;23;19996;-62
2023/06/08 08:22:33;;;;;;;21.27;14.27;;;11.70;99.90;;;;;;6244664;23;20049;-62
2023/06/08 08:24:58;;;;;;;20.23;12.68;;;11.80;99.90;;;;;;6244378;23;20091;-61
2023/06/08 08:27:24;;;;;;;16.00;11.48;;;11.90;99.90;;;;;;6245009;23;20398;-63
2023/06/08 08:29:50;;;;;;;15.68;11.35;;;11.90;99.90;;;;;;6244484;23;20460;-64
2023/06/08 08:32:15;;;;;;;15.90;11.93;;;12.00;99.90;;;;;;6217964;23;20296;-62
2023/06/08 08:34:41;;;;;;;19.10;12.02;;;12.00;99.90;;;;;;6245255;23;20142;-63
2023/06/08 08:37:07;;;;;;;15.77;10.35;;;11.90;99.90;;;;;;6245406;23;20087;-62
2023/06/08 08:39:32;;;;;;;13.98;11.38;;;12.00;99.90;;;;;;6243101;23;20414;-62
2023/06/08 08:42:02;;;;;;;15.27;10.38;;;12.10;99.90;;;;;;6245036;23;20129;-63
2023/06/08 08:44:30;;;;;;;14.65;9.73;;;12.20;99.90;;;;;;6245094;23;20008;-62
2023/06/08 08:47:02;;;;;;;14.35;9.43;;;12.30;99.90;;;;;;6244625;23;19988;-63
2023/06/08 08:49:36;;;;;;;13.10;8.85;;;12.40;99.90;;;;;;6244667;23;20000;-62
2023/06/08 08:52:02;;;;;;;11.68;9.55;;;12.50;99.90;;;;;;6217926;23;20088;-64
2023/06/08 08:54:33;;;;;;;16.65;9.68;;;12.50;99.90;;;;;;6244696;23;20307;-63
2023/06/08 08:56:59;;;;;;;15.93;10.57;;;12.60;99.90;;;;;;6217525;23;19996;-64
2023/06/08 08:59:29;;;;;;;19.98;11.07;;;12.60;99.90;;;;;;6244700;23;20000;-64
2023/06/08 09:01:57;;;;;;;13.63;10.23;;;12.70;99.90;;;;;;6244816;22;20422;-63
2023/06/08 09:04:26;;;;;;;15.48;11.02;;;12.90;99.90;;;;;;6245065;23;20041;-63
2023/06/08 09:06:52;;;;;;;16.63;10.45;;;13.00;99.90;;;;;;6244969;22;20433;-63
2023/06/08 09:09:17;;;;;;;16.40;11.52;;;12.90;99.90;;;;;;6244238;23;19988;-63
2023/06/08 09:11:56;;;;;;;14.50;11.55;;;13.00;99.90;;;;;;6217776;23;20340;-63
2023/06/08 09:14:21;;;;;;;15.68;10.57;;;13.10;99.90;;;;;;6244256;23;20028;-64
2023/06/08 09:16:48;;;;;;;18.10;10.40;;;13.20;99.90;;;;;;6245186;23;20004;-64
2023/06/08 09:19:13;;;;;;;11.68;9.20;;;13.30;99.50;;;;;;6244116;23;20336;-63
2023/06/08 09:21:43;;;;;;;14.25;9.85;;;13.40;99.20;;;;;;6244307;23;20000;-67
2023/06/08 09:24:16;;;;;;;14.80;9.10;;;13.50;98.80;;;;;;6243330;23;20083;-63
2023/06/08 09:26:59;;;;;;;13.55;9.30;;;13.60;98.50;;;;;;6243734;23;19992;-63
2023/06/08 09:29:42;;;;;;;16.40;9.32;;;13.80;97.80;;;;;;6243523;23;20079;-63
2023/06/08 09:32:16;;;;;;;16.92;9.48;;;14.00;97.30;;;;;;6243423;23;20004;-64
2023/06/08 09:35:13;;;;;;;14.85;9.65;;;14.10;96.60;;;;;;6244181;23;20004;-64
2023/06/08 09:37:39;;;;;;;17.13;10.77;;;14.10;95.70;;;;;;6244123;23;19996;-64
2023/06/08 09:40:08;;;;;;;25.42;9.38;;;14.20;95.60;;;;;;6244647;23;19992;-65
2023/06/08 09:42:44;;;;;;;16.77;10.93;;;14.40;95.00;;;;;;6244791;23;20099;-63
2023/06/08 09:45:15;;;;;;;20.65;10.93;;;14.60;94.60;;;;;;6244386;23;20040;-64
2023/06/08 09:47:42;;;;;;;18.45;10.32;;;14.60;93.70;;;;;;6244371;23;20000;-66
2023/06/08 09:50:08;;;;;;;18.05;9.65;;;14.70;93.70;;;;;;6245675;23;20004;-65
2023/06/08 09:52:36;;;;;;;16.02;10.57;;;14.70;93.20;;;;;;6245012;23;20026;-64
2023/06/08 09:55:03;;;;;;;11.80;9.00;;;14.70;93.10;;;;;;6244931;23;20365;-63
2023/06/08 09:57:35;;;;;;;14.68;9.50;;;14.70;93.00;;;;;;6217587;23;20000;-63
2023/06/08 10:00:17;;;;;;;12.40;9.05;;;14.70;93.00;;;;;;6244448;23;20476;-63
2023/06/08 10:02:53;;;;;;;18.63;8.68;;;14.90;92.90;;;;;;6243987;23;20504;-64
2023/06/08 10:05:22;;;;;;;13.82;9.55;;;15.20;92.70;;;;;;6243764;23;20418;-65
2023/06/08 10:07:51;;;;;;;12.38;9.52;;;15.40;92.30;;;;;;6272504;22;20015;-63
2023/06/08 10:10:33;;;;;;;15.13;9.13;;;15.40;91.70;;;;;;6274499;22;20305;-63
2023/06/08 10:12:59;;;;;;;15.52;9.88;;;15.60;91.10;;;;;;6274976;22;20075;-62
2023/06/08 10:15:27;;;;;;;17.02;9.70;;;15.70;91.00;;;;;;6274223;22;20306;-63
2023/06/08 10:17:54;;;;;;;17.65;9.55;;;15.90;90.70;;;;;;6274631;22;20050;-64
2023/06/08 10:20:20;;;;;;;13.93;10.10;;;16.00;90.30;;;;;;6247278;22;20086;-63
2023/06/08 10:22:47;;;;;;;17.65;10.30;;;16.10;90.00;;;;;;6274003;22;20390;-64
2023/06/08 10:25:16;;;;;;;18.00;10.82;;;16.20;88.50;;;;;;6274201;22;20007;-64
2023/06/08 10:27:49;;;;;;;14.63;10.63;;;16.30;87.30;;;;;;6247174;22;19996;-64
2023/06/08 10:30:29;;;;;;;14.32;9.75;;;16.40;87.20;;;;;;6274693;22;19996;-65
2023/06/08 10:33:07;;;;;;;14.40;9.93;;;16.60;86.60;;;;;;6274557;22;20069;-64
2023/06/08 10:35:32;;;;;;;13.10;10.02;;;16.90;85.60;;;;;;6274146;22;20007;-64
2023/06/08 10:38:16;;;;;;;14.70;9.90;;;17.00;83.70;;;;;;6274409;22;20441;-64
2023/06/08 10:40:50;;;;;;;16.05;9.00;;;17.10;83.10;;;;;;6274404;22;20410;-64
2023/06/08 10:43:21;;;;;;;15.10;8.75;;;17.20;82.20;;;;;;6274548;22;20011;-64
2023/06/08 10:45:48;;;;;;;13.02;8.93;;;17.40;82.30;;;;;;6274944;22;20456;-64
2023/06/08 10:48:18;;;;;;;13.18;8.45;;;17.70;81.30;;;;;;6274491;22;20044;-64
2023/06/08 10:50:51;;;;;;;11.37;8.20;;;17.80;79.90;;;;;;6274054;22;20413;-63
2023/06/08 10:53:38;;;;;;;13.55;8.13;;;18.00;79.40;;;;;;6274770;22;20002;-63
2023/06/08 10:56:04;;;;;;;15.63;8.70;;;18.10;78.30;;;;;;6247965;22;20011;-64
2023/06/08 10:58:51;;;;;;;16.10;7.50;;;18.10;77.50;;;;;;6274531;22;19996;-64
2023/06/08 11:01:19;;;;;;;12.20;7.75;;;18.00;77.20;;;;;;6273863;22;19996;-64
2023/06/08 11:03:49;;;;;;;14.63;7.78;;;18.20;77.30;;;;;;6274334;22;20476;-63
2023/06/08 11:06:15;;;;;;;11.88;7.55;;;18.40;76.50;;;;;;6274583;22;20022;-63
2023/06/08 11:08:41;;;;;;;9.82;7.53;;;18.40;75.90;;;;;;6274385;22;20370;-63
2023/06/08 11:11:10;;;;;;;12.35;7.65;;;18.50;75.40;;;;;;6274531;22;20015;-64
2023/06/08 11:13:37;;;;;;;12.30;8.25;;;18.60;75.00;;;;;;6273647;22;20030;-64
2023/06/08 11:16:02;;;;;;;9.95;7.82;;;18.70;74.80;;;;;;6273156;22;20071;-63
2023/06/08 11:18:29;;;;;;;12.38;7.18;;;18.90;74.50;;;;;;6273661;22;20379;-64
2023/06/08 11:20:58;;;;;;;11.48;7.53;;;19.10;74.20;;;;;;6273221;22;20007;-64
2023/06/08 11:23:25;;;;;;;18.95;8.20;;;19.20;73.80;;;;;;6247202;22;20448;-64
2023/06/08 11:25:51;;;;;;;14.25;7.85;;;19.20;73.10;;;;;;6274344;22;20004;-64
2023/06/08 11:28:18;;;;;;;14.95;7.65;;;19.20;72.90;;;;;;6272222;22;19996;-64
2023/06/08 11:30:44;;;;;;;11.25;6.80;;;19.20;72.80;;;;;;6273801;22;20293;-64
2023/06/08 11:33:17;;;;;;;17.00;7.18;;;19.40;73.10;;;;;;6272871;22;19996;-64
2023/06/08 11:35:43;;;;;;;12.75;6.57;;;19.40;72.00;;;;;;6268600;22;20004;-65
2023/06/08 11:38:09;;;;;;;14.32;8.10;;;19.40;72.10;;;;;;6273996;22;20416;-63
2023/06/08 11:40:38;;;;;;;8.98;7.05;;;19.60;71.90;;;;;;6274505;22;19996;-66
2023/06/08 11:43:04;;;;;;;12.48;7.75;;;19.70;71.00;;;;;;6272011;22;20004;-65
2023/06/08 11:45:30;;;;;;;11.38;7.38;;;19.70;70.80;;;;;;6273984;22;20006;-65
2023/06/08 11:47:57;;;;;;;13.35;7.85;;;19.80;70.50;;;;;;6272493;22;20003;-65
2023/06/08 11:50:23;;;;;;;15.38;7.28;;;19.90;70.30;;;;;;6274147;22;20150;-64
2023/06/08 11:52:49;;;;;;;11.02;6.85;;;20.10;70.20;;;;;;6276020;22;19999;-64
2023/06/08 11:55:18;;;;;;;10.57;6.65;;;20.20;69.50;;;;;;6276069;22;20003;-64
2023/06/08 11:57:57;;;;;;;11.30;7.68;;;20.40;69.40;;;;;;6275832;22;19999;-65
2023/06/08 12:00:29;;;;;;;12.43;7.53;;;20.50;68.90;;;;;;6274837;22;19991;-65
2023/06/08 12:02:56;;;;;;;12.95;8.10;;;20.60;68.20;;;;;;6276103;22;20306;-63
2023/06/08 12:05:33;;;;;;;12.27;7.57;;;20.50;67.90;;;;;;6276249;22;20007;-64
2023/06/08 12:08:01;;;;;;;14.75;7.63;;;20.50;68.50;;;;;;6276162;22;20098;-64
2023/06/08 12:10:36;;;;;;;10.70;7.10;;;20.60;68.20;;;;;;6276207;22;19992;-64
2023/06/08 12:13:11;;;;;;;12.40;7.22;;;20.80;67.50;;;;;;6248858;22;19999;-65
2023/06/08 12:15:40;;;;;;;16.08;7.93;;;20.90;67.20;;;;;;6275799;22;20003;-64
2023/06/08 12:18:06;;;;;;;16.02;8.02;;;21.10;66.80;;;;;;6276160;22;20004;-65
2023/06/08 12:20:35;;;;;;;13.00;7.10;;;21.20;66.80;;;;;;6275234;22;20497;-65
2023/06/08 12:23:01;;;;;;;13.32;8.05;;;21.30;66.50;;;;;;6276019;22;20003;-65
2023/06/08 12:25:27;;;;;;;12.98;8.32;;;21.50;66.10;;;;;;6275644;22;19999;-65
2023/06/08 12:27:54;;;;;;;13.05;8.55;;;21.70;65.70;;;;;;6275857;22;19999;-64
2023/06/08 12:30:21;;;;;;;17.38;7.97;;;21.80;65.00;;;;;;6275859;22;20010;-65
2023/06/08 12:32:47;;;;;;;9.95;7.18;;;21.90;64.40;;;;;;6248380;22;20010;-65
2023/06/08 12:35:13;;;;;;;12.40;7.35;;;21.90;64.00;;;;;;6275840;22;20004;-64